createdAt,value
2023-05-02T00:03:53.015Z,9.28
2023-05-02T00:08:56.357Z,9.33
2023-05-02T00:13:59.279Z,9.37
2023-05-02T00:19:02.217Z,9.44
2023-05-02T00:24:05.953Z,9.51
2023-05-02T00:29:08.962Z,9.58
2023-05-02T00:34:11.905Z,9.65
2023-05-02T00:39:15.381Z,9.69
2023-05-02T00:44:18.348Z,9.74
2023-05-02T00:49:21.513Z,9.78
2023-05-02T00:54:24.551Z,9.85
2023-05-02T00:59:27.468Z,9.87
2023-05-02T01:04:58.001Z,9.88
2023-05-02T01:10:15.085Z,9.84
2023-05-02T01:15:22.545Z,9.78
2023-05-02T01:20:29.395Z,9.72
2023-05-02T01:25:37.978Z,9.67
2023-05-02T01:30:45.004Z,9.69
2023-05-02T01:35:52.661Z,9.69
2023-05-02T01:40:59.183Z,9.60
2023-05-02T01:46:05.220Z,9.65
2023-05-02T01:51:09.220Z,9.61
2023-05-02T01:56:12.784Z,9.60
2023-05-02T02:01:17.888Z,9.58
2023-05-02T02:06:22.325Z,9.57
2023-05-02T02:11:40.761Z,9.58
2023-05-02T02:16:44.323Z,9.58
2023-05-02T02:21:49.376Z,9.56
2023-05-02T02:26:52.529Z,9.48
2023-05-02T02:31:55.540Z,9.49
2023-05-02T02:37:18.398Z,9.50
2023-05-02T02:42:44.185Z,9.47
2023-05-02T02:48:07.458Z,9.40
2023-05-02T02:53:19.710Z,9.32
2023-05-02T02:58:48.029Z,9.25
2023-05-02T03:03:53.611Z,9.23
2023-05-02T03:08:56.938Z,9.19
2023-05-02T03:13:59.956Z,9.14
2023-05-02T03:19:04.378Z,9.07
2023-05-02T03:24:07.377Z,9.03
2023-05-02T03:29:10.895Z,8.95
2023-05-02T03:34:13.835Z,8.83
2023-05-02T03:39:17.734Z,8.80
2023-05-02T03:44:20.712Z,8.71
2023-05-02T03:49:23.493Z,8.70
2023-05-02T03:54:26.524Z,8.68
2023-05-02T03:59:29.605Z,8.64
2023-05-02T04:04:33.109Z,8.66
2023-05-02T04:09:36.171Z,8.79
2023-05-02T04:14:39.235Z,8.91
2023-05-02T04:19:42.633Z,9.04
2023-05-02T04:24:45.697Z,9.14
2023-05-02T04:29:50.258Z,9.27
2023-05-02T04:34:53.265Z,9.47
2023-05-02T04:39:56.330Z,9.70
2023-05-02T04:45:00.484Z,9.92
2023-05-02T04:50:03.632Z,10.16
2023-05-02T04:55:07.387Z,10.44
2023-05-02T05:00:11.330Z,10.72
2023-05-02T05:05:14.553Z,11.05
2023-05-02T05:10:17.640Z,11.40
2023-05-02T05:15:22.712Z,11.73
2023-05-02T05:20:25.706Z,12.11
2023-05-02T05:25:28.848Z,12.41
2023-05-02T05:30:32.236Z,12.72
2023-05-02T05:35:35.308Z,12.99
2023-05-02T05:40:38.314Z,13.22
2023-05-02T05:45:41.228Z,13.43
2023-05-02T05:50:44.174Z,13.59
2023-05-02T05:55:47.352Z,13.74
2023-05-02T06:00:50.758Z,13.91
2023-05-02T06:05:53.850Z,14.08
2023-05-02T06:10:57.000Z,14.22
2023-05-02T06:16:03.374Z,14.34
2023-05-02T06:21:06.911Z,14.44
2023-05-02T06:26:10.612Z,14.62
2023-05-02T06:31:13.613Z,14.85
2023-05-02T06:36:16.564Z,15.04
2023-05-02T06:41:20.866Z,15.26
2023-05-02T06:46:24.436Z,15.45
2023-05-02T06:51:27.766Z,15.66
2023-05-02T06:56:31.263Z,15.84
2023-05-02T07:01:34.295Z,16.07
2023-05-02T07:06:37.409Z,16.34
2023-05-02T07:11:40.492Z,16.43
2023-05-02T07:16:43.517Z,16.53
2023-05-02T07:21:46.557Z,16.68
2023-05-02T07:26:49.676Z,16.93
2023-05-02T07:31:52.754Z,17.13
2023-05-02T07:36:56.178Z,17.42
2023-05-02T07:41:59.373Z,17.63
2023-05-02T07:47:02.773Z,17.94
2023-05-02T07:52:05.861Z,18.17
2023-05-02T07:57:09.083Z,18.49
2023-05-02T08:02:13.851Z,18.62
2023-05-02T08:07:17.349Z,18.94
2023-05-02T08:12:20.388Z,19.06
2023-05-02T08:17:23.453Z,19.17
2023-05-02T08:22:26.409Z,19.06
2023-05-02T08:27:29.425Z,19.19
2023-05-02T08:32:33.140Z,19.33
2023-05-02T08:37:36.582Z,19.56
2023-05-02T08:42:44.814Z,19.62
2023-05-02T08:47:50.022Z,19.67
2023-05-02T08:52:54.188Z,19.73
2023-05-02T08:57:59.146Z,20.20
2023-05-02T09:03:33.870Z,20.37
2023-05-02T09:08:37.666Z,20.71
2023-05-02T09:13:43.641Z,20.91
2023-05-02T09:18:49.119Z,20.93
2023-05-02T09:23:57.638Z,21.32
2023-05-02T09:29:05.067Z,21.36
2023-05-02T09:34:19.283Z,21.30
2023-05-02T09:39:29.343Z,21.45
2023-05-02T09:44:39.318Z,21.57
2023-05-02T09:49:47.134Z,21.75
2023-05-02T09:54:52.281Z,22.02
2023-05-02T09:59:59.133Z,21.96
2023-05-02T10:05:04.742Z,21.88
2023-05-02T10:10:12.622Z,21.87
2023-05-02T10:15:19.010Z,21.76
2023-05-02T10:20:37.944Z,21.81
2023-05-02T10:25:41.230Z,21.96
2023-05-02T10:30:45.955Z,22.30
2023-05-02T10:35:49.131Z,22.35
2023-05-02T10:41:01.271Z,22.79
2023-05-02T10:46:24.481Z,22.88
2023-05-02T10:51:32.204Z,23.12
2023-05-02T10:56:35.404Z,23.34
2023-05-02T11:01:39.691Z,23.39
2023-05-02T11:07:05.720Z,23.24
2023-05-02T11:12:08.738Z,23.34
2023-05-02T11:17:11.740Z,23.32
2023-05-02T11:22:20.779Z,23.26
2023-05-02T11:27:30.070Z,23.12
2023-05-02T11:32:49.914Z,23.13
2023-05-02T11:37:57.018Z,23.03
2023-05-02T11:43:01.494Z,22.93
2023-05-02T11:48:08.487Z,23.01
2023-05-02T11:53:17.602Z,23.44
2023-05-02T11:58:29.619Z,23.26
2023-05-02T12:03:34.178Z,23.29
2023-05-02T12:08:38.048Z,23.32
2023-05-02T12:13:50.001Z,23.42
2023-05-02T12:18:53.575Z,23.43
2023-05-02T12:23:57.285Z,23.72
2023-05-02T12:29:02.090Z,24.07
2023-05-02T12:34:05.056Z,24.02
2023-05-02T12:39:08.030Z,23.93
2023-05-02T12:44:11.097Z,23.75
2023-05-02T12:49:14.156Z,23.54
2023-05-02T12:54:21.451Z,23.30
2023-05-02T12:59:30.432Z,23.16
2023-05-02T13:04:42.202Z,23.01
2023-05-02T13:09:45.194Z,22.88
2023-05-02T13:14:48.243Z,22.88
2023-05-02T13:20:00.850Z,22.83
2023-05-02T13:25:06.638Z,22.66
2023-05-02T13:30:10.888Z,22.58
2023-05-02T13:35:15.823Z,22.54
2023-05-02T13:40:18.913Z,22.48
2023-05-02T13:45:22.352Z,22.41
2023-05-02T13:50:25.357Z,22.37
2023-05-02T13:55:28.289Z,22.34
2023-05-02T14:00:31.414Z,22.32
2023-05-02T14:05:34.421Z,22.28
2023-05-02T14:10:37.989Z,22.19
2023-05-02T14:15:40.905Z,22.19
2023-05-02T14:20:44.450Z,22.20
2023-05-02T14:25:47.220Z,22.16
2023-05-02T14:30:51.284Z,22.01
2023-05-02T14:35:54.404Z,21.47
2023-05-02T14:40:57.390Z,20.69
2023-05-02T14:46:00.537Z,20.27
2023-05-02T14:51:05.692Z,19.90
2023-05-02T14:56:14.854Z,19.77
2023-05-02T15:01:23.472Z,19.75
2023-05-02T15:06:33.246Z,19.86
2023-05-02T15:11:36.839Z,19.96
2023-05-02T15:16:39.956Z,20.02
2023-05-02T15:21:43.168Z,20.09
2023-05-02T15:26:46.730Z,20.13
2023-05-02T15:31:49.663Z,20.18
2023-05-02T15:36:52.808Z,20.19
2023-05-02T15:41:55.868Z,20.17
2023-05-02T15:47:00.299Z,20.15
2023-05-02T15:52:03.560Z,20.16
2023-05-02T15:57:06.596Z,20.22
2023-05-02T16:02:09.680Z,20.27
2023-05-02T16:07:12.641Z,20.32
2023-05-02T16:12:15.708Z,20.34
2023-05-02T16:17:18.666Z,20.36
2023-05-02T16:22:22.306Z,20.35
2023-05-02T16:27:25.508Z,20.31
2023-05-02T16:32:28.347Z,20.30
2023-05-02T16:37:33.731Z,20.25
2023-05-02T16:42:37.328Z,20.21
2023-05-02T16:47:40.365Z,20.13
2023-05-02T16:52:44.544Z,20.05
2023-05-02T16:57:48.010Z,19.97
2023-05-02T17:02:55.090Z,19.88
2023-05-02T17:07:58.580Z,19.76
2023-05-02T17:13:01.521Z,19.68
2023-05-02T17:18:05.258Z,19.52
2023-05-02T17:23:09.168Z,19.33
2023-05-02T17:28:12.271Z,19.06
2023-05-02T17:33:16.208Z,18.84
2023-05-02T17:38:28.895Z,18.67
2023-05-02T17:43:32.187Z,18.55
2023-05-02T17:48:35.399Z,18.48
2023-05-02T17:53:39.242Z,18.38
2023-05-02T17:58:42.188Z,18.17
2023-05-02T18:03:45.456Z,17.81
2023-05-02T18:08:48.683Z,17.47
2023-05-02T18:13:52.058Z,17.15
2023-05-02T18:18:55.329Z,16.96
2023-05-02T18:23:58.184Z,16.88
2023-05-02T18:29:01.167Z,16.80
2023-05-02T18:34:04.752Z,16.72
2023-05-02T18:39:10.453Z,16.69
2023-05-02T18:44:13.462Z,16.68
2023-05-02T18:49:17.736Z,16.70
2023-05-02T18:54:22.888Z,16.71
2023-05-02T18:59:26.716Z,16.70
2023-05-02T19:04:33.088Z,16.60
2023-05-02T19:09:37.272Z,16.52
2023-05-02T19:14:40.523Z,16.44
2023-05-02T19:19:46.704Z,16.30
2023-05-02T19:24:51.005Z,16.16
2023-05-02T19:29:54.730Z,16.03
2023-05-02T19:34:58.063Z,15.89
2023-05-02T19:40:01.169Z,15.84
2023-05-02T19:45:04.744Z,15.84
2023-05-02T19:50:09.451Z,15.86
2023-05-02T19:55:12.618Z,15.79
2023-05-02T20:00:16.284Z,15.62
2023-05-02T20:05:19.712Z,15.41
2023-05-02T20:10:22.877Z,15.22
2023-05-02T20:15:26.003Z,15.11
2023-05-02T20:20:30.230Z,15.07
2023-05-02T20:25:33.324Z,15.09
2023-05-02T20:30:36.348Z,15.16
2023-05-02T20:35:39.329Z,15.20
2023-05-02T20:40:42.835Z,15.24
2023-05-02T20:45:47.123Z,15.21
2023-05-02T20:50:54.670Z,15.15
2023-05-02T20:55:57.805Z,14.99
2023-05-02T21:01:01.420Z,14.86
2023-05-02T21:06:04.536Z,14.62
2023-05-02T21:11:16.862Z,14.41
2023-05-02T21:16:22.113Z,14.18
2023-05-02T21:21:25.307Z,14.03
2023-05-02T21:26:28.368Z,13.94
2023-05-02T21:31:33.215Z,13.86
2023-05-02T21:36:36.399Z,13.76
2023-05-02T21:41:39.478Z,13.73
2023-05-02T21:46:42.712Z,13.71
2023-05-02T21:51:45.851Z,13.65
2023-05-02T21:56:48.871Z,13.63
2023-05-02T22:01:52.316Z,13.59
2023-05-02T22:06:55.855Z,13.56
2023-05-02T22:11:58.980Z,13.49
2023-05-02T22:17:04.625Z,13.46
2023-05-02T22:22:08.134Z,13.38
2023-05-02T22:27:11.256Z,13.34
2023-05-02T22:32:14.296Z,13.32
2023-05-02T22:37:17.195Z,13.34
2023-05-02T22:42:20.899Z,13.38
2023-05-02T22:47:24.099Z,13.41
2023-05-02T22:52:27.495Z,13.45
2023-05-02T22:57:31.393Z,13.49
2023-05-02T23:02:35.821Z,13.49
2023-05-02T23:07:39.574Z,13.41
2023-05-02T23:12:42.640Z,13.31
2023-05-02T23:17:45.687Z,13.24
2023-05-02T23:22:48.769Z,13.20
2023-05-02T23:27:51.990Z,13.15
2023-05-02T23:32:55.551Z,13.13
2023-05-02T23:38:07.089Z,13.17
2023-05-02T23:43:10.994Z,13.12
2023-05-02T23:48:13.986Z,13.12
2023-05-02T23:53:17.063Z,13.10
2023-05-02T23:58:20.140Z,13.11
